createdAt,value
2022-11-05T00:04:45.149Z,10.08
2022-11-05T00:09:47.202Z,10.20
2022-11-05T00:14:49.176Z,10.11
2022-11-05T00:19:50.694Z,10.17
2022-11-05T00:24:52.154Z,10.19
2022-11-05T00:29:53.710Z,10.25
2022-11-05T00:34:55.203Z,10.21
2022-11-05T00:39:56.759Z,10.32
2022-11-05T00:44:58.301Z,10.51
2022-11-05T00:49:59.730Z,10.48
2022-11-05T00:55:01.166Z,10.57
2022-11-05T01:00:02.838Z,10.57
2022-11-05T01:05:04.549Z,10.64
2022-11-05T01:10:06.574Z,10.62
2022-11-05T01:15:08.568Z,10.55
2022-11-05T01:20:10.754Z,10.64
2022-11-05T01:25:12.234Z,10.35
2022-11-05T01:30:14.305Z,10.48
2022-11-05T01:35:17.547Z,10.49
2022-11-05T01:40:21.675Z,10.56
2022-11-05T01:45:28.176Z,10.54
2022-11-05T01:50:45.240Z,10.38
2022-11-05T01:55:53.574Z,10.40
2022-11-05T02:00:56.630Z,10.28
2022-11-05T02:06:00.113Z,10.27
2022-11-05T02:11:01.686Z,10.30
2022-11-05T02:16:23.730Z,10.27
2022-11-05T02:21:49.110Z,10.26
2022-11-05T02:27:10.173Z,10.21
2022-11-05T02:32:20.115Z,10.19
2022-11-05T02:37:41.387Z,10.18
2022-11-05T02:42:54.990Z,10.13
2022-11-05T02:48:17.849Z,10.02
2022-11-05T02:53:28.946Z,9.91
2022-11-05T02:58:33.361Z,10.04
2022-11-05T03:03:41.886Z,10.11
2022-11-05T03:09:02.077Z,10.15
2022-11-05T03:14:22.418Z,9.92
2022-11-05T03:19:35.265Z,10.05
2022-11-05T03:24:42.614Z,10.02
2022-11-05T03:29:49.611Z,9.94
2022-11-05T03:34:57.149Z,9.90
2022-11-05T03:40:01.825Z,9.72
2022-11-05T03:45:11.338Z,9.52
2022-11-05T03:50:40.026Z,9.62
2022-11-05T03:55:54.522Z,9.89
2022-11-05T04:00:56.188Z,9.93
2022-11-05T04:05:57.755Z,9.74
2022-11-05T04:10:59.402Z,9.84
2022-11-05T04:16:00.930Z,9.88
2022-11-05T04:21:03.831Z,9.86
2022-11-05T04:26:05.303Z,9.86
2022-11-05T04:31:06.840Z,9.50
2022-11-05T04:36:08.612Z,9.44
2022-11-05T04:41:15.453Z,9.48
2022-11-05T04:46:17.112Z,9.23
2022-11-05T04:51:18.810Z,8.98
2022-11-05T04:56:24.937Z,8.94
2022-11-05T05:01:26.630Z,8.95
2022-11-05T05:06:28.190Z,9.07
2022-11-05T05:11:29.667Z,9.21
2022-11-05T05:16:31.226Z,9.37
2022-11-05T05:21:32.870Z,9.27
2022-11-05T05:26:38.929Z,9.12
2022-11-05T05:31:41.044Z,9.15
2022-11-05T05:36:42.576Z,9.06
2022-11-05T05:41:43.978Z,9.16
2022-11-05T05:46:45.449Z,9.05
2022-11-05T05:51:48.846Z,9.05
2022-11-05T05:56:50.317Z,9.06
2022-11-05T06:01:51.895Z,8.94
2022-11-05T06:06:53.614Z,9.02
2022-11-05T06:11:55.193Z,9.08
2022-11-05T06:16:56.651Z,9.15
2022-11-05T06:21:58.098Z,9.20
2022-11-05T06:26:59.650Z,9.17
2022-11-05T06:32:01.112Z,8.88
2022-11-05T06:37:02.548Z,8.65
2022-11-05T06:42:17.950Z,8.71
2022-11-05T06:47:20.488Z,8.74
2022-11-05T06:52:21.980Z,8.76
2022-11-05T06:57:23.496Z,8.60
2022-11-05T07:02:24.947Z,8.44
2022-11-05T07:07:26.397Z,8.42
2022-11-05T07:12:27.816Z,8.79
2022-11-05T07:17:29.858Z,8.79
2022-11-05T07:22:31.857Z,8.52
2022-11-05T07:27:38.494Z,8.41
2022-11-05T07:32:40.262Z,8.26
2022-11-05T07:37:46.093Z,8.53
2022-11-05T07:42:48.540Z,8.68
2022-11-05T07:47:58.504Z,8.82
2022-11-05T07:53:26.469Z,8.70
2022-11-05T07:58:27.938Z,8.52
2022-11-05T08:03:29.481Z,8.45
2022-11-05T08:08:31.129Z,8.55
2022-11-05T08:13:33.523Z,8.92
2022-11-05T08:18:34.982Z,9.05
2022-11-05T08:23:36.471Z,9.55
2022-11-05T08:28:37.978Z,9.57
2022-11-05T08:33:39.424Z,9.73
2022-11-05T08:38:40.868Z,9.57
2022-11-05T08:43:42.329Z,10.07
2022-11-05T08:48:43.724Z,10.45
2022-11-05T08:53:45.531Z,10.76
2022-11-05T08:58:47.060Z,10.72
2022-11-05T09:03:51.413Z,10.90
2022-11-05T09:08:52.904Z,11.05
2022-11-05T09:13:54.315Z,11.25
2022-11-05T09:18:55.750Z,10.59
2022-11-05T09:23:57.234Z,11.14
2022-11-05T09:28:58.643Z,10.88
2022-11-05T09:34:00.099Z,10.83
2022-11-05T09:39:01.781Z,11.00
2022-11-05T09:44:13.648Z,11.22
2022-11-05T09:49:40.140Z,11.42
2022-11-05T09:54:41.701Z,11.71
2022-11-05T09:59:50.568Z,11.36
2022-11-05T10:04:58.059Z,11.56
2022-11-05T10:10:06.134Z,11.57
2022-11-05T10:15:19.283Z,11.70
2022-11-05T10:20:32.320Z,11.28
2022-11-05T10:25:38.738Z,11.30
2022-11-05T10:30:40.206Z,11.20
2022-11-05T10:35:55.030Z,11.03
2022-11-05T10:41:30.511Z,11.01
2022-11-05T10:46:42.306Z,11.03
2022-11-05T10:51:45.406Z,10.90
2022-11-05T10:56:47.421Z,10.73
2022-11-05T11:02:00.934Z,11.20
2022-11-05T11:07:02.545Z,10.99
2022-11-05T11:12:42.239Z,11.37
2022-11-05T11:17:43.705Z,11.47
2022-11-05T11:23:03.419Z,11.43
2022-11-05T11:28:06.552Z,11.66
2022-11-05T11:33:11.111Z,11.62
2022-11-05T11:38:16.158Z,11.60
2022-11-05T11:43:27.305Z,11.60
2022-11-05T11:48:31.066Z,11.58
2022-11-05T11:53:36.016Z,11.58
2022-11-05T11:58:41.368Z,11.53
2022-11-05T12:04:20.456Z,11.54
2022-11-05T12:09:27.475Z,11.28
2022-11-05T12:15:02.120Z,11.46
2022-11-05T12:20:36.054Z,11.48
2022-11-05T12:26:05.614Z,11.73
2022-11-05T12:31:38.626Z,11.41
2022-11-05T12:36:45.995Z,11.55
2022-11-05T12:42:11.575Z,11.57
2022-11-05T12:47:40.383Z,11.54
2022-11-05T12:52:59.874Z,11.60
2022-11-05T12:58:18.258Z,11.39
2022-11-05T13:03:56.971Z,11.51
2022-11-05T13:09:12.228Z,11.38
2022-11-05T13:14:13.626Z,11.45
2022-11-05T13:19:34.738Z,11.54
2022-11-05T13:24:59.194Z,11.14
2022-11-05T13:30:05.035Z,11.08
2022-11-05T13:35:19.487Z,11.05
2022-11-05T13:40:34.296Z,11.13
2022-11-05T13:45:41.584Z,10.91
2022-11-05T13:51:06.929Z,10.74
2022-11-05T13:56:51.372Z,10.74
2022-11-05T14:02:02.283Z,10.61
2022-11-05T14:07:13.040Z,10.61
2022-11-05T14:12:23.945Z,10.72
2022-11-05T14:17:53.369Z,10.59
2022-11-05T14:23:17.393Z,10.89
2022-11-05T14:28:34.134Z,10.78
2022-11-05T14:33:39.562Z,10.86
2022-11-05T14:38:52.818Z,10.97
2022-11-05T14:44:06.533Z,10.90
2022-11-05T14:49:18.763Z,10.78
2022-11-05T14:54:29.211Z,10.91
2022-11-05T14:59:32.566Z,11.01
2022-11-05T15:04:36.101Z,10.95
2022-11-05T15:10:10.739Z,10.94
2022-11-05T15:15:23.874Z,10.80
2022-11-05T15:20:40.009Z,10.74
2022-11-05T15:26:01.185Z,10.66
2022-11-05T15:31:02.582Z,10.62
2022-11-05T15:36:26.864Z,10.60
2022-11-05T15:41:31.399Z,10.48
2022-11-05T15:46:33.006Z,10.46
2022-11-05T15:51:34.579Z,10.36
2022-11-05T15:56:46.599Z,10.34
2022-11-05T16:01:55.043Z,10.22
2022-11-05T16:07:01.025Z,9.98
2022-11-05T16:12:20.741Z,9.84
2022-11-05T16:17:25.658Z,9.88
2022-11-05T16:22:44.486Z,9.80
2022-11-05T16:27:46.379Z,9.64
2022-11-05T16:32:48.523Z,9.63
2022-11-05T16:37:52.411Z,9.77
2022-11-05T16:42:54.771Z,9.69
2022-11-05T16:47:56.239Z,9.57
2022-11-05T16:52:57.829Z,9.57
2022-11-05T16:57:59.702Z,9.58
2022-11-05T17:03:01.187Z,9.52
2022-11-05T17:08:02.686Z,9.20
2022-11-05T17:13:04.093Z,9.41
2022-11-05T17:18:06.043Z,9.14
2022-11-05T17:23:09.938Z,9.11
2022-11-05T17:28:12.701Z,9.16
2022-11-05T17:33:15.194Z,9.30
2022-11-05T17:38:17.327Z,9.33
2022-11-05T17:43:19.804Z,9.35
2022-11-05T17:48:21.372Z,9.43
2022-11-05T17:53:22.923Z,9.08
2022-11-05T17:58:24.358Z,9.00
2022-11-05T18:03:25.838Z,8.80
2022-11-05T18:08:27.289Z,8.75
2022-11-05T18:13:28.692Z,8.76
2022-11-05T18:18:31.948Z,8.71
2022-11-05T18:23:33.447Z,8.59
2022-11-05T18:28:34.821Z,8.48
2022-11-05T18:33:36.259Z,8.65
2022-11-05T18:38:37.700Z,8.67
2022-11-05T18:43:39.064Z,8.75
2022-11-05T18:48:40.508Z,8.72
2022-11-05T18:53:42.641Z,8.51
2022-11-05T18:58:45.110Z,8.48
2022-11-05T19:03:47.364Z,8.60
2022-11-05T19:08:48.932Z,8.30
2022-11-05T19:13:50.485Z,8.37
2022-11-05T19:18:52.062Z,8.51
2022-11-05T19:23:53.930Z,8.73
2022-11-05T19:28:57.527Z,8.74
2022-11-05T19:33:59.446Z,8.71
2022-11-05T19:39:05.038Z,8.81
2022-11-05T19:44:06.582Z,8.79
2022-11-05T19:49:07.997Z,8.36
2022-11-05T19:54:09.789Z,8.15
2022-11-05T19:59:11.841Z,8.25
2022-11-05T20:04:13.506Z,8.71
2022-11-05T20:09:21.780Z,8.27
2022-11-05T20:14:25.628Z,8.51
2022-11-05T20:19:27.089Z,8.84
2022-11-05T20:24:28.657Z,9.06
2022-11-05T20:29:35.405Z,8.93
2022-11-05T20:34:37.362Z,9.10
2022-11-05T20:39:38.829Z,9.12
2022-11-05T20:44:40.236Z,9.13
2022-11-05T20:49:41.737Z,9.08
2022-11-05T20:54:43.162Z,9.25
2022-11-05T20:59:44.809Z,8.97
2022-11-05T21:04:46.326Z,9.34
2022-11-05T21:09:47.774Z,9.37
2022-11-05T21:14:49.243Z,9.45
2022-11-05T21:19:50.642Z,9.42
2022-11-05T21:24:52.075Z,9.34
2022-11-05T21:29:53.533Z,9.21
2022-11-05T21:34:54.961Z,9.08
2022-11-05T21:39:56.420Z,8.99
2022-11-05T21:45:00.542Z,9.04
2022-11-05T21:50:02.290Z,9.07
2022-11-05T21:55:04.053Z,8.87
2022-11-05T22:00:08.526Z,8.94
2022-11-05T22:05:10.244Z,9.09
2022-11-05T22:10:16.041Z,9.22
2022-11-05T22:15:18.017Z,9.15
2022-11-05T22:20:19.553Z,9.05
2022-11-05T22:25:21.462Z,8.90
2022-11-05T22:30:22.834Z,9.02
2022-11-05T22:35:24.280Z,9.00
2022-11-05T22:40:25.712Z,8.98
2022-11-05T22:45:27.222Z,9.05
2022-11-05T22:50:28.656Z,9.05
2022-11-05T22:55:30.266Z,9.02
2022-11-05T23:00:37.077Z,8.76
2022-11-05T23:05:38.483Z,8.85
2022-11-05T23:10:40.024Z,8.95
2022-11-05T23:15:41.547Z,9.11
2022-11-05T23:20:43.246Z,9.16
2022-11-05T23:25:44.794Z,9.12
2022-11-05T23:30:46.251Z,9.04
2022-11-05T23:35:47.739Z,8.97
2022-11-05T23:40:49.184Z,8.91
2022-11-05T23:45:50.675Z,8.96
2022-11-05T23:50:56.208Z,9.11
2022-11-05T23:56:03.692Z,9.14
